sensor_id;sensor_type;location;lat;lon;timestamp;P1;durP1;ratioP1;P2;durP2;ratioP2
29200;SDS011;16244;51.956;12.980;2023-05-07T00:02:08;19.20;;;15.73;;
29200;SDS011;16244;51.956;12.980;2023-05-07T00:04:36;25.33;;;16.27;;
29200;SDS011;16244;51.956;12.980;2023-05-07T00:07:04;18.20;;;14.37;;
29200;SDS011;16244;51.956;12.980;2023-05-07T00:09:34;16.57;;;14.40;;
29200;SDS011;16244;51.956;12.980;2023-05-07T00:12:01;17.90;;;14.60;;
29200;SDS011;16244;51.956;12.980;2023-05-07T00:14:29;19.73;;;13.60;;
29200;SDS011;16244;51.956;12.980;2023-05-07T00:16:57;18.20;;;13.73;;
29200;SDS011;16244;51.956;12.980;2023-05-07T00:19:25;20.47;;;15.17;;
29200;SDS011;16244;51.956;12.980;2023-05-07T00:21:55;19.00;;;14.43;;
29200;SDS011;16244;51.956;12.980;2023-05-07T00:24:22;17.23;;;13.90;;
29200;SDS011;16244;51.956;12.980;2023-05-07T00:26:51;17.57;;;14.43;;
29200;SDS011;16244;51.956;12.980;2023-05-07T00:29:19;15.23;;;13.63;;
29200;SDS011;16244;51.956;12.980;2023-05-07T00:31:48;18.50;;;14.57;;
29200;SDS011;16244;51.956;12.980;2023-05-07T00:34:16;15.07;;;13.60;;
29200;SDS011;16244;51.956;12.980;2023-05-07T00:36:44;18.87;;;14.47;;
29200;SDS011;16244;51.956;12.980;2023-05-07T00:39:11;14.90;;;12.80;;
29200;SDS011;16244;51.956;12.980;2023-05-07T00:41:39;14.03;;;12.53;;
29200;SDS011;16244;51.956;12.980;2023-05-07T00:44:08;15.17;;;13.67;;
29200;SDS011;16244;51.956;12.980;2023-05-07T00:46:35;13.40;;;12.07;;
29200;SDS011;16244;51.956;12.980;2023-05-07T00:49:03;15.23;;;13.10;;
29200;SDS011;16244;51.956;12.980;2023-05-07T00:51:31;14.27;;;12.80;;
29200;SDS011;16244;51.956;12.980;2023-05-07T00:53:59;13.60;;;12.27;;
29200;SDS011;16244;51.956;12.980;2023-05-07T00:56:28;14.87;;;13.20;;
29200;SDS011;16244;51.956;12.980;2023-05-07T00:58:57;14.03;;;12.70;;
29200;SDS011;16244;51.956;12.980;2023-05-07T01:01:25;13.50;;;12.07;;
29200;SDS011;16244;51.956;12.980;2023-05-07T01:03:53;13.63;;;11.87;;
29200;SDS011;16244;51.956;12.980;2023-05-07T01:06:20;14.50;;;10.87;;
29200;SDS011;16244;51.956;12.980;2023-05-07T01:08:50;13.70;;;11.97;;
29200;SDS011;16244;51.956;12.980;2023-05-07T01:11:19;13.80;;;12.37;;
29200;SDS011;16244;51.956;12.980;2023-05-07T01:13:47;14.40;;;12.57;;
29200;SDS011;16244;51.956;12.980;2023-05-07T01:16:15;13.63;;;12.27;;
29200;SDS011;16244;51.956;12.980;2023-05-07T01:18:45;14.90;;;12.07;;
29200;SDS011;16244;51.956;12.980;2023-05-07T01:21:14;13.20;;;11.43;;
29200;SDS011;16244;51.956;12.980;2023-05-07T01:23:46;13.20;;;11.30;;
29200;SDS011;16244;51.956;12.980;2023-05-07T01:26:15;14.27;;;11.70;;
29200;SDS011;16244;51.956;12.980;2023-05-07T01:28:45;16.10;;;12.30;;
29200;SDS011;16244;51.956;12.980;2023-05-07T01:31:13;12.03;;;10.77;;
29200;SDS011;16244;51.956;12.980;2023-05-07T01:33:43;11.87;;;10.90;;
29200;SDS011;16244;51.956;12.980;2023-05-07T01:36:12;14.53;;;11.63;;
29200;SDS011;16244;51.956;12.980;2023-05-07T01:38:42;13.07;;;10.50;;
29200;SDS011;16244;51.956;12.980;2023-05-07T01:41:12;10.70;;;9.87;;
29200;SDS011;16244;51.956;12.980;2023-05-07T01:43:41;9.90;;;9.20;;
29200;SDS011;16244;51.956;12.980;2023-05-07T01:46:09;10.10;;;9.30;;
29200;SDS011;16244;51.956;12.980;2023-05-07T01:48:38;10.90;;;9.17;;
29200;SDS011;16244;51.956;12.980;2023-05-07T01:51:06;11.47;;;9.97;;
29200;SDS011;16244;51.956;12.980;2023-05-07T01:53:36;11.87;;;9.93;;
29200;SDS011;16244;51.956;12.980;2023-05-07T01:56:04;9.40;;;8.70;;
29200;SDS011;16244;51.956;12.980;2023-05-07T01:58:34;10.30;;;9.30;;
29200;SDS011;16244;51.956;12.980;2023-05-07T02:01:01;12.13;;;11.10;;
29200;SDS011;16244;51.956;12.980;2023-05-07T02:03:29;10.30;;;9.50;;
29200;SDS011;16244;51.956;12.980;2023-05-07T02:05:57;10.90;;;9.73;;
29200;SDS011;16244;51.956;12.980;2023-05-07T02:08:24;10.30;;;9.50;;
29200;SDS011;16244;51.956;12.980;2023-05-07T02:10:52;10.33;;;9.50;;
29200;SDS011;16244;51.956;12.980;2023-05-07T02:13:20;11.33;;;10.20;;
29200;SDS011;16244;51.956;12.980;2023-05-07T02:15:49;10.43;;;9.43;;
29200;SDS011;16244;51.956;12.980;2023-05-07T02:18:17;11.23;;;10.20;;
29200;SDS011;16244;51.956;12.980;2023-05-07T02:20:45;10.23;;;9.33;;
29200;SDS011;16244;51.956;12.980;2023-05-07T02:23:13;8.50;;;7.90;;
29200;SDS011;16244;51.956;12.980;2023-05-07T02:25:41;9.60;;;8.20;;
29200;SDS011;16244;51.956;12.980;2023-05-07T02:28:08;8.80;;;8.13;;
29200;SDS011;16244;51.956;12.980;2023-05-07T02:30:37;10.20;;;9.50;;
29200;SDS011;16244;51.956;12.980;2023-05-07T02:33:07;8.87;;;8.13;;
29200;SDS011;16244;51.956;12.980;2023-05-07T02:35:35;9.00;;;8.40;;
29200;SDS011;16244;51.956;12.980;2023-05-07T02:38:03;8.77;;;8.07;;
29200;SDS011;16244;51.956;12.980;2023-05-07T02:40:31;9.60;;;8.80;;
29200;SDS011;16244;51.956;12.980;2023-05-07T02:43:00;11.03;;;8.97;;
29200;SDS011;16244;51.956;12.980;2023-05-07T02:45:28;8.20;;;7.60;;
29200;SDS011;16244;51.956;12.980;2023-05-07T02:47:56;8.60;;;8.03;;
29200;SDS011;16244;51.956;12.980;2023-05-07T02:50:25;7.20;;;6.80;;
29200;SDS011;16244;51.956;12.980;2023-05-07T02:52:53;8.00;;;7.20;;
29200;SDS011;16244;51.956;12.980;2023-05-07T02:55:21;8.00;;;7.50;;
29200;SDS011;16244;51.956;12.980;2023-05-07T02:57:49;7.13;;;6.63;;
29200;SDS011;16244;51.956;12.980;2023-05-07T03:00:17;5.90;;;5.50;;
29200;SDS011;16244;51.956;12.980;2023-05-07T03:02:46;6.60;;;6.00;;
29200;SDS011;16244;51.956;12.980;2023-05-07T03:05:13;6.40;;;5.90;;
29200;SDS011;16244;51.956;12.980;2023-05-07T03:07:42;5.67;;;5.47;;
29200;SDS011;16244;51.956;12.980;2023-05-07T03:10:11;5.50;;;5.30;;
29200;SDS011;16244;51.956;12.980;2023-05-07T03:12:39;5.40;;;5.10;;
29200;SDS011;16244;51.956;12.980;2023-05-07T03:15:07;7.83;;;5.00;;
29200;SDS011;16244;51.956;12.980;2023-05-07T03:17:37;5.77;;;5.57;;
29200;SDS011;16244;51.956;12.980;2023-05-07T03:20:05;6.77;;;6.47;;
29200;SDS011;16244;51.956;12.980;2023-05-07T03:22:33;7.40;;;7.00;;
29200;SDS011;16244;51.956;12.980;2023-05-07T03:25:03;6.80;;;6.40;;
29200;SDS011;16244;51.956;12.980;2023-05-07T03:27:31;6.77;;;6.47;;
29200;SDS011;16244;51.956;12.980;2023-05-07T03:29:59;7.20;;;6.73;;
29200;SDS011;16244;51.956;12.980;2023-05-07T03:32:27;7.33;;;6.83;;
29200;SDS011;16244;51.956;12.980;2023-05-07T03:34:55;8.70;;;8.03;;
29200;SDS011;16244;51.956;12.980;2023-05-07T03:37:22;7.57;;;6.97;;
29200;SDS011;16244;51.956;12.980;2023-05-07T03:39:51;8.60;;;7.83;;
29200;SDS011;16244;51.956;12.980;2023-05-07T03:42:20;8.23;;;7.70;;
29200;SDS011;16244;51.956;12.980;2023-05-07T03:44:48;7.70;;;7.30;;
29200;SDS011;16244;51.956;12.980;2023-05-07T03:47:15;8.57;;;7.83;;
29200;SDS011;16244;51.956;12.980;2023-05-07T03:49:43;9.60;;;8.23;;
29200;SDS011;16244;51.956;12.980;2023-05-07T03:52:11;7.67;;;7.27;;
29200;SDS011;16244;51.956;12.980;2023-05-07T03:54:39;8.73;;;8.07;;
29200;SDS011;16244;51.956;12.980;2023-05-07T03:57:06;8.87;;;8.27;;
29200;SDS011;16244;51.956;12.980;2023-05-07T03:59:35;9.73;;;8.83;;
29200;SDS011;16244;51.956;12.980;2023-05-07T04:02:03;8.93;;;8.40;;
29200;SDS011;16244;51.956;12.980;2023-05-07T04:04:30;8.23;;;7.73;;
29200;SDS011;16244;51.956;12.980;2023-05-07T04:06:59;6.23;;;6.03;;
29200;SDS011;16244;51.956;12.980;2023-05-07T04:09:27;7.37;;;6.97;;
29200;SDS011;16244;51.956;12.980;2023-05-07T04:11:54;7.00;;;6.70;;
29200;SDS011;16244;51.956;12.980;2023-05-07T04:14:22;7.90;;;7.30;;
29200;SDS011;16244;51.956;12.980;2023-05-07T04:16:51;8.47;;;7.97;;
29200;SDS011;16244;51.956;12.980;2023-05-07T04:19:19;8.80;;;8.00;;
29200;SDS011;16244;51.956;12.980;2023-05-07T04:21:46;8.07;;;7.47;;
29200;SDS011;16244;51.956;12.980;2023-05-07T04:24:14;7.57;;;6.97;;
29200;SDS011;16244;51.956;12.980;2023-05-07T04:26:41;7.10;;;6.50;;
29200;SDS011;16244;51.956;12.980;2023-05-07T04:29:09;7.23;;;6.73;;
29200;SDS011;16244;51.956;12.980;2023-05-07T04:31:37;7.20;;;6.57;;
29200;SDS011;16244;51.956;12.980;2023-05-07T04:34:06;7.83;;;7.23;;
29200;SDS011;16244;51.956;12.980;2023-05-07T04:36:34;9.00;;;8.30;;
29200;SDS011;16244;51.956;12.980;2023-05-07T04:39:03;9.87;;;8.90;;
29200;SDS011;16244;51.956;12.980;2023-05-07T04:41:31;10.63;;;9.73;;
29200;SDS011;16244;51.956;12.980;2023-05-07T04:43:59;12.30;;;11.17;;
29200;SDS011;16244;51.956;12.980;2023-05-07T04:46:29;13.50;;;12.23;;
29200;SDS011;16244;51.956;12.980;2023-05-07T04:48:57;13.17;;;11.77;;
29200;SDS011;16244;51.956;12.980;2023-05-07T04:51:26;15.13;;;13.73;;
29200;SDS011;16244;51.956;12.980;2023-05-07T04:53:53;15.20;;;13.73;;
29200;SDS011;16244;51.956;12.980;2023-05-07T04:56:21;12.67;;;11.57;;
29200;SDS011;16244;51.956;12.980;2023-05-07T04:58:49;12.63;;;11.33;;
29200;SDS011;16244;51.956;12.980;2023-05-07T05:01:16;13.63;;;12.33;;
29200;SDS011;16244;51.956;12.980;2023-05-07T05:03:44;12.20;;;11.17;;
29200;SDS011;16244;51.956;12.980;2023-05-07T05:06:11;12.73;;;11.40;;
29200;SDS011;16244;51.956;12.980;2023-05-07T05:08:40;11.63;;;10.53;;
29200;SDS011;16244;51.956;12.980;2023-05-07T05:11:08;12.67;;;11.53;;
29200;SDS011;16244;51.956;12.980;2023-05-07T05:13:36;12.87;;;11.67;;
29200;SDS011;16244;51.956;12.980;2023-05-07T05:16:03;9.10;;;8.50;;
29200;SDS011;16244;51.956;12.980;2023-05-07T05:18:32;7.90;;;7.30;;
29200;SDS011;16244;51.956;12.980;2023-05-07T05:21:00;6.73;;;6.43;;
29200;SDS011;16244;51.956;12.980;2023-05-07T05:23:28;7.53;;;7.03;;
29200;SDS011;16244;51.956;12.980;2023-05-07T05:25:57;7.33;;;6.73;;
29200;SDS011;16244;51.956;12.980;2023-05-07T05:28:25;8.33;;;7.70;;
29200;SDS011;16244;51.956;12.980;2023-05-07T05:30:53;8.23;;;7.60;;
29200;SDS011;16244;51.956;12.980;2023-05-07T05:33:20;8.77;;;8.03;;
29200;SDS011;16244;51.956;12.980;2023-05-07T05:35:49;8.77;;;8.17;;
29200;SDS011;16244;51.956;12.980;2023-05-07T05:38:16;12.10;;;10.00;;
29200;SDS011;16244;51.956;12.980;2023-05-07T05:40:44;9.23;;;8.43;;
29200;SDS011;16244;51.956;12.980;2023-05-07T05:43:13;9.73;;;8.73;;
29200;SDS011;16244;51.956;12.980;2023-05-07T05:45:41;22.37;;;8.50;;
29200;SDS011;16244;51.956;12.980;2023-05-07T05:48:08;9.87;;;8.97;;
29200;SDS011;16244;51.956;12.980;2023-05-07T05:50:36;10.10;;;9.20;;
29200;SDS011;16244;51.956;12.980;2023-05-07T05:53:03;10.17;;;9.27;;
29200;SDS011;16244;51.956;12.980;2023-05-07T05:55:31;12.17;;;9.67;;
29200;SDS011;16244;51.956;12.980;2023-05-07T05:57:59;10.40;;;9.27;;
29200;SDS011;16244;51.956;12.980;2023-05-07T06:00:29;9.83;;;8.93;;
29200;SDS011;16244;51.956;12.980;2023-05-07T06:02:56;9.83;;;8.93;;
29200;SDS011;16244;51.956;12.980;2023-05-07T06:05:24;10.40;;;9.40;;
29200;SDS011;16244;51.956;12.980;2023-05-07T06:07:52;10.10;;;8.97;;
29200;SDS011;16244;51.956;12.980;2023-05-07T06:10:20;12.20;;;9.90;;
29200;SDS011;16244;51.956;12.980;2023-05-07T06:12:47;11.30;;;10.20;;
29200;SDS011;16244;51.956;12.980;2023-05-07T06:15:15;15.40;;;10.57;;
29200;SDS011;16244;51.956;12.980;2023-05-07T06:17:44;10.00;;;9.10;;
29200;SDS011;16244;51.956;12.980;2023-05-07T06:20:12;10.33;;;9.43;;
29200;SDS011;16244;51.956;12.980;2023-05-07T06:22:40;10.87;;;9.70;;
29200;SDS011;16244;51.956;12.980;2023-05-07T06:25:08;9.27;;;8.57;;
29200;SDS011;16244;51.956;12.980;2023-05-07T06:27:36;9.37;;;8.57;;
29200;SDS011;16244;51.956;12.980;2023-05-07T06:30:06;8.60;;;7.73;;
29200;SDS011;16244;51.956;12.980;2023-05-07T06:32:34;9.10;;;7.23;;
29200;SDS011;16244;51.956;12.980;2023-05-07T06:35:03;8.33;;;7.60;;
29200;SDS011;16244;51.956;12.980;2023-05-07T06:37:31;7.43;;;7.03;;
29200;SDS011;16244;51.956;12.980;2023-05-07T06:39:58;8.33;;;7.63;;
29200;SDS011;16244;51.956;12.980;2023-05-07T06:42:26;7.73;;;7.23;;
29200;SDS011;16244;51.956;12.980;2023-05-07T06:44:54;8.13;;;7.63;;
29200;SDS011;16244;51.956;12.980;2023-05-07T06:47:21;8.83;;;8.10;;
29200;SDS011;16244;51.956;12.980;2023-05-07T06:49:49;9.00;;;8.20;;
29200;SDS011;16244;51.956;12.980;2023-05-07T06:52:18;9.00;;;8.20;;
29200;SDS011;16244;51.956;12.980;2023-05-07T06:54:45;10.97;;;8.40;;
29200;SDS011;16244;51.956;12.980;2023-05-07T06:57:14;8.30;;;7.63;;
29200;SDS011;16244;51.956;12.980;2023-05-07T06:59:42;9.23;;;8.13;;
29200;SDS011;16244;51.956;12.980;2023-05-07T07:02:09;9.43;;;8.73;;
29200;SDS011;16244;51.956;12.980;2023-05-07T07:04:37;8.50;;;7.77;;
29200;SDS011;16244;51.956;12.980;2023-05-07T07:07:05;9.87;;;8.87;;
29200;SDS011;16244;51.956;12.980;2023-05-07T07:09:35;8.90;;;8.30;;
29200;SDS011;16244;51.956;12.980;2023-05-07T07:12:02;10.83;;;8.20;;
29200;SDS011;16244;51.956;12.980;2023-05-07T07:14:31;7.97;;;7.47;;
29200;SDS011;16244;51.956;12.980;2023-05-07T07:16:58;8.57;;;7.87;;
29200;SDS011;16244;51.956;12.980;2023-05-07T07:19:26;8.37;;;7.67;;
29200;SDS011;16244;51.956;12.980;2023-05-07T07:21:53;8.40;;;7.70;;
29200;SDS011;16244;51.956;12.980;2023-05-07T07:24:21;7.80;;;7.20;;
29200;SDS011;16244;51.956;12.980;2023-05-07T07:26:50;7.53;;;6.90;;
29200;SDS011;16244;51.956;12.980;2023-05-07T07:29:17;7.33;;;6.80;;
29200;SDS011;16244;51.956;12.980;2023-05-07T07:31:45;8.50;;;7.87;;
29200;SDS011;16244;51.956;12.980;2023-05-07T07:34:13;8.23;;;7.70;;
29200;SDS011;16244;51.956;12.980;2023-05-07T07:36:43;7.63;;;7.13;;
29200;SDS011;16244;51.956;12.980;2023-05-07T07:39:10;8.50;;;7.90;;
29200;SDS011;16244;51.956;12.980;2023-05-07T07:41:38;7.53;;;7.03;;
29200;SDS011;16244;51.956;12.980;2023-05-07T07:44:07;7.57;;;7.07;;
29200;SDS011;16244;51.956;12.980;2023-05-07T07:46:38;7.57;;;7.07;;
29200;SDS011;16244;51.956;12.980;2023-05-07T07:49:06;7.80;;;7.10;;
29200;SDS011;16244;51.956;12.980;2023-05-07T07:51:34;7.77;;;7.20;;
29200;SDS011;16244;51.956;12.980;2023-05-07T07:54:01;10.37;;;9.30;;
29200;SDS011;16244;51.956;12.980;2023-05-07T07:56:31;9.37;;;8.57;;
29200;SDS011;16244;51.956;12.980;2023-05-07T07:59:00;8.40;;;7.43;;
29200;SDS011;16244;51.956;12.980;2023-05-07T08:01:30;7.77;;;7.20;;
29200;SDS011;16244;51.956;12.980;2023-05-07T08:03:58;8.40;;;7.70;;
29200;SDS011;16244;51.956;12.980;2023-05-07T08:06:26;7.40;;;7.00;;
29200;SDS011;16244;51.956;12.980;2023-05-07T08:08:53;6.77;;;6.27;;
29200;SDS011;16244;51.956;12.980;2023-05-07T08:11:22;7.57;;;6.97;;
29200;SDS011;16244;51.956;12.980;2023-05-07T08:13:49;7.23;;;6.57;;
29200;SDS011;16244;51.956;12.980;2023-05-07T08:16:17;6.90;;;6.27;;
29200;SDS011;16244;51.956;12.980;2023-05-07T08:18:46;7.43;;;6.93;;
29200;SDS011;16244;51.956;12.980;2023-05-07T08:21:14;7.20;;;6.73;;
29200;SDS011;16244;51.956;12.980;2023-05-07T08:23:41;8.17;;;7.37;;
29200;SDS011;16244;51.956;12.980;2023-05-07T08:26:09;8.40;;;7.80;;
29200;SDS011;16244;51.956;12.980;2023-05-07T08:28:37;7.83;;;7.40;;
29200;SDS011;16244;51.956;12.980;2023-05-07T08:31:05;6.70;;;6.33;;
29200;SDS011;16244;51.956;12.980;2023-05-07T08:33:33;7.33;;;6.60;;
29200;SDS011;16244;51.956;12.980;2023-05-07T08:36:01;6.20;;;5.97;;
29200;SDS011;16244;51.956;12.980;2023-05-07T08:38:30;7.23;;;6.67;;
29200;SDS011;16244;51.956;12.980;2023-05-07T08:40:58;6.87;;;6.50;;
29200;SDS011;16244;51.956;12.980;2023-05-07T08:43:26;5.70;;;5.30;;
29200;SDS011;16244;51.956;12.980;2023-05-07T08:45:54;6.93;;;6.53;;
29200;SDS011;16244;51.956;12.980;2023-05-07T08:48:22;6.93;;;6.47;;
29200;SDS011;16244;51.956;12.980;2023-05-07T08:50:52;7.40;;;6.80;;
29200;SDS011;16244;51.956;12.980;2023-05-07T08:53:22;7.97;;;6.97;;
29200;SDS011;16244;51.956;12.980;2023-05-07T08:55:49;6.50;;;5.90;;
29200;SDS011;16244;51.956;12.980;2023-05-07T08:58:17;7.20;;;6.67;;
29200;SDS011;16244;51.956;12.980;2023-05-07T09:00:44;7.33;;;6.93;;
29200;SDS011;16244;51.956;12.980;2023-05-07T09:03:13;7.17;;;6.73;;
29200;SDS011;16244;51.956;12.980;2023-05-07T09:05:41;6.40;;;6.10;;
29200;SDS011;16244;51.956;12.980;2023-05-07T09:08:09;5.27;;;5.07;;
29200;SDS011;16244;51.956;12.980;2023-05-07T09:10:38;5.63;;;5.43;;
29200;SDS011;16244;51.956;12.980;2023-05-07T09:13:06;6.50;;;6.00;;
29200;SDS011;16244;51.956;12.980;2023-05-07T09:15:33;6.87;;;6.47;;
29200;SDS011;16244;51.956;12.980;2023-05-07T09:18:01;6.43;;;6.03;;
29200;SDS011;16244;51.956;12.980;2023-05-07T09:20:30;6.73;;;6.03;;
29200;SDS011;16244;51.956;12.980;2023-05-07T09:22:58;5.93;;;5.63;;
29200;SDS011;16244;51.956;12.980;2023-05-07T09:25:29;6.00;;;5.80;;
29200;SDS011;16244;51.956;12.980;2023-05-07T09:27:59;5.20;;;5.00;;
29200;SDS011;16244;51.956;12.980;2023-05-07T09:30:27;5.70;;;5.30;;
29200;SDS011;16244;51.956;12.980;2023-05-07T09:32:57;3.60;;;3.60;;
29200;SDS011;16244;51.956;12.980;2023-05-07T09:35:25;4.40;;;4.30;;
29200;SDS011;16244;51.956;12.980;2023-05-07T09:37:53;4.47;;;4.17;;
29200;SDS011;16244;51.956;12.980;2023-05-07T09:40:23;3.80;;;3.70;;
29200;SDS011;16244;51.956;12.980;2023-05-07T09:42:51;5.47;;;5.07;;
29200;SDS011;16244;51.956;12.980;2023-05-07T09:45:23;3.50;;;3.40;;
29200;SDS011;16244;51.956;12.980;2023-05-07T09:47:53;4.77;;;4.57;;
29200;SDS011;16244;51.956;12.980;2023-05-07T09:50:24;4.07;;;3.97;;
29200;SDS011;16244;51.956;12.980;2023-05-07T09:52:54;3.77;;;3.57;;
29200;SDS011;16244;51.956;12.980;2023-05-07T09:55:22;3.90;;;3.80;;
29200;SDS011;16244;51.956;12.980;2023-05-07T09:57:51;3.30;;;3.30;;
29200;SDS011;16244;51.956;12.980;2023-05-07T10:00:21;4.60;;;4.40;;
29200;SDS011;16244;51.956;12.980;2023-05-07T10:02:52;4.80;;;4.43;;
29200;SDS011;16244;51.956;12.980;2023-05-07T10:05:20;3.70;;;3.60;;
29200;SDS011;16244;51.956;12.980;2023-05-07T10:07:49;3.90;;;3.80;;
29200;SDS011;16244;51.956;12.980;2023-05-07T10:10:17;4.50;;;4.37;;
29200;SDS011;16244;51.956;12.980;2023-05-07T10:12:45;6.13;;;5.63;;
29200;SDS011;16244;51.956;12.980;2023-05-07T10:15:14;5.70;;;5.40;;
29200;SDS011;16244;51.956;12.980;2023-05-07T10:17:42;5.53;;;5.13;;
29200;SDS011;16244;51.956;12.980;2023-05-07T10:20:11;5.50;;;5.20;;
29200;SDS011;16244;51.956;12.980;2023-05-07T10:22:40;5.10;;;4.97;;
29200;SDS011;16244;51.956;12.980;2023-05-07T10:25:13;6.33;;;5.90;;
29200;SDS011;16244;51.956;12.980;2023-05-07T10:27:43;6.20;;;5.70;;
29200;SDS011;16244;51.956;12.980;2023-05-07T10:30:15;5.63;;;5.33;;
29200;SDS011;16244;51.956;12.980;2023-05-07T10:32:55;6.13;;;5.73;;
29200;SDS011;16244;51.956;12.980;2023-05-07T10:35:32;5.97;;;5.70;;
29200;SDS011;16244;51.956;12.980;2023-05-07T10:38:05;5.90;;;5.60;;
29200;SDS011;16244;51.956;12.980;2023-05-07T10:40:33;6.23;;;5.83;;
29200;SDS011;16244;51.956;12.980;2023-05-07T10:43:01;5.73;;;5.30;;
29200;SDS011;16244;51.956;12.980;2023-05-07T10:45:30;6.83;;;6.40;;
29200;SDS011;16244;51.956;12.980;2023-05-07T10:48:10;6.83;;;6.53;;
29200;SDS011;16244;51.956;12.980;2023-05-07T10:50:39;7.27;;;6.97;;
29200;SDS011;16244;51.956;12.980;2023-05-07T10:53:22;7.30;;;6.70;;
29200;SDS011;16244;51.956;12.980;2023-05-07T11:01:57;7.33;;;6.90;;
29200;SDS011;16244;51.956;12.980;2023-05-07T11:04:31;7.30;;;6.80;;
29200;SDS011;16244;51.956;12.980;2023-05-07T11:09:57;6.17;;;5.97;;
29200;SDS011;16244;51.956;12.980;2023-05-07T11:15:34;5.77;;;5.63;;
29200;SDS011;16244;51.956;12.980;2023-05-07T11:18:05;7.87;;;7.13;;
29200;SDS011;16244;51.956;12.980;2023-05-07T11:20:47;5.00;;;4.80;;
29200;SDS011;16244;51.956;12.980;2023-05-07T11:26:24;5.70;;;5.30;;
29200;SDS011;16244;51.956;12.980;2023-05-07T11:28:52;5.73;;;5.20;;
29200;SDS011;16244;51.956;12.980;2023-05-07T11:31:21;5.70;;;5.40;;
29200;SDS011;16244;51.956;12.980;2023-05-07T11:33:52;5.60;;;5.20;;
29200;SDS011;16244;51.956;12.980;2023-05-07T11:36:21;5.00;;;4.80;;
29200;SDS011;16244;51.956;12.980;2023-05-07T11:38:50;5.70;;;5.40;;
29200;SDS011;16244;51.956;12.980;2023-05-07T11:41:18;5.30;;;5.13;;
29200;SDS011;16244;51.956;12.980;2023-05-07T11:43:53;5.47;;;4.90;;
29200;SDS011;16244;51.956;12.980;2023-05-07T11:46:27;4.23;;;4.13;;
29200;SDS011;16244;51.956;12.980;2023-05-07T11:48:55;5.03;;;4.93;;
29200;SDS011;16244;51.956;12.980;2023-05-07T11:51:24;5.13;;;4.93;;
29200;SDS011;16244;51.956;12.980;2023-05-07T11:53:53;5.50;;;5.20;;
29200;SDS011;16244;51.956;12.980;2023-05-07T11:56:21;5.50;;;5.40;;
29200;SDS011;16244;51.956;12.980;2023-05-07T11:58:48;5.43;;;5.13;;
29200;SDS011;16244;51.956;12.980;2023-05-07T12:01:18;4.83;;;4.63;;
29200;SDS011;16244;51.956;12.980;2023-05-07T12:03:45;5.67;;;5.27;;
29200;SDS011;16244;51.956;12.980;2023-05-07T12:06:14;5.73;;;5.53;;
29200;SDS011;16244;51.956;12.980;2023-05-07T12:08:44;4.93;;;4.77;;
29200;SDS011;16244;51.956;12.980;2023-05-07T12:11:14;5.37;;;5.13;;
29200;SDS011;16244;51.956;12.980;2023-05-07T12:13:43;4.50;;;4.40;;
29200;SDS011;16244;51.956;12.980;2023-05-07T12:16:11;4.77;;;4.67;;
29200;SDS011;16244;51.956;12.980;2023-05-07T12:18:39;4.30;;;4.10;;
29200;SDS011;16244;51.956;12.980;2023-05-07T12:21:07;5.40;;;5.30;;
29200;SDS011;16244;51.956;12.980;2023-05-07T12:23:35;6.00;;;5.57;;
29200;SDS011;16244;51.956;12.980;2023-05-07T12:26:05;4.83;;;4.67;;
29200;SDS011;16244;51.956;12.980;2023-05-07T12:28:36;4.70;;;4.60;;
29200;SDS011;16244;51.956;12.980;2023-05-07T12:31:05;4.30;;;4.20;;
29200;SDS011;16244;51.956;12.980;2023-05-07T12:33:34;5.20;;;5.10;;
29200;SDS011;16244;51.956;12.980;2023-05-07T12:36:05;4.83;;;4.63;;
29200;SDS011;16244;51.956;12.980;2023-05-07T12:38:34;4.80;;;4.60;;
29200;SDS011;16244;51.956;12.980;2023-05-07T12:41:03;4.47;;;4.37;;
29200;SDS011;16244;51.956;12.980;2023-05-07T12:43:33;3.40;;;3.30;;
29200;SDS011;16244;51.956;12.980;2023-05-07T12:46:01;4.43;;;4.13;;
29200;SDS011;16244;51.956;12.980;2023-05-07T12:48:31;3.70;;;3.60;;
29200;SDS011;16244;51.956;12.980;2023-05-07T12:51:00;3.63;;;3.33;;
29200;SDS011;16244;51.956;12.980;2023-05-07T12:53:29;4.00;;;3.90;;
29200;SDS011;16244;51.956;12.980;2023-05-07T12:55:57;4.30;;;4.00;;
29200;SDS011;16244;51.956;12.980;2023-05-07T12:58:28;3.27;;;3.17;;
29200;SDS011;16244;51.956;12.980;2023-05-07T13:00:56;2.60;;;2.50;;
29200;SDS011;16244;51.956;12.980;2023-05-07T13:03:26;3.73;;;3.40;;
29200;SDS011;16244;51.956;12.980;2023-05-07T13:05:55;6.47;;;2.90;;
29200;SDS011;16244;51.956;12.980;2023-05-07T13:08:25;4.60;;;2.17;;
29200;SDS011;16244;51.956;12.980;2023-05-07T13:10:57;2.60;;;2.60;;
29200;SDS011;16244;51.956;12.980;2023-05-07T13:13:31;2.60;;;2.50;;
29200;SDS011;16244;51.956;12.980;2023-05-07T13:15:59;2.70;;;2.70;;
29200;SDS011;16244;51.956;12.980;2023-05-07T13:18:29;3.30;;;3.10;;
29200;SDS011;16244;51.956;12.980;2023-05-07T13:20:57;4.70;;;4.60;;
29200;SDS011;16244;51.956;12.980;2023-05-07T13:23:25;4.97;;;4.60;;
29200;SDS011;16244;51.956;12.980;2023-05-07T13:25:53;3.90;;;3.80;;
29200;SDS011;16244;51.956;12.980;2023-05-07T13:28:24;4.00;;;3.80;;
29200;SDS011;16244;51.956;12.980;2023-05-07T13:30:54;13.70;;;3.40;;
29200;SDS011;16244;51.956;12.980;2023-05-07T13:33:27;2.90;;;2.40;;
29200;SDS011;16244;51.956;12.980;2023-05-07T13:35:54;12.43;;;3.20;;
29200;SDS011;16244;51.956;12.980;2023-05-07T13:38:23;3.73;;;3.43;;
29200;SDS011;16244;51.956;12.980;2023-05-07T13:40:51;3.70;;;3.50;;
29200;SDS011;16244;51.956;12.980;2023-05-07T13:43:19;3.80;;;3.70;;
29200;SDS011;16244;51.956;12.980;2023-05-07T13:45:46;2.30;;;2.30;;
29200;SDS011;16244;51.956;12.980;2023-05-07T13:48:15;2.23;;;2.03;;
29200;SDS011;16244;51.956;12.980;2023-05-07T13:50:42;2.40;;;2.40;;
29200;SDS011;16244;51.956;12.980;2023-05-07T13:53:10;3.13;;;3.13;;
29200;SDS011;16244;51.956;12.980;2023-05-07T13:55:38;3.20;;;3.10;;
29200;SDS011;16244;51.956;12.980;2023-05-07T13:58:05;3.07;;;3.07;;
29200;SDS011;16244;51.956;12.980;2023-05-07T14:00:33;2.30;;;2.20;;
29200;SDS011;16244;51.956;12.980;2023-05-07T14:03:00;2.70;;;2.50;;
29200;SDS011;16244;51.956;12.980;2023-05-07T14:05:30;1.83;;;1.83;;
29200;SDS011;16244;51.956;12.980;2023-05-07T14:07:58;2.50;;;2.40;;
29200;SDS011;16244;51.956;12.980;2023-05-07T14:10:25;2.40;;;2.40;;
29200;SDS011;16244;51.956;12.980;2023-05-07T14:12:53;2.70;;;2.60;;
29200;SDS011;16244;51.956;12.980;2023-05-07T14:15:20;2.80;;;2.70;;
29200;SDS011;16244;51.956;12.980;2023-05-07T14:17:48;3.70;;;2.27;;
29200;SDS011;16244;51.956;12.980;2023-05-07T14:20:16;2.37;;;2.37;;
29200;SDS011;16244;51.956;12.980;2023-05-07T14:22:45;2.10;;;2.10;;
29200;SDS011;16244;51.956;12.980;2023-05-07T14:25:12;5.43;;;2.30;;
29200;SDS011;16244;51.956;12.980;2023-05-07T14:27:41;2.07;;;1.97;;
29200;SDS011;16244;51.956;12.980;2023-05-07T14:30:09;6.83;;;2.27;;
29200;SDS011;16244;51.956;12.980;2023-05-07T14:32:38;2.00;;;2.00;;
29200;SDS011;16244;51.956;12.980;2023-05-07T14:35:06;4.80;;;2.60;;
29200;SDS011;16244;51.956;12.980;2023-05-07T14:37:34;2.00;;;2.00;;
29200;SDS011;16244;51.956;12.980;2023-05-07T14:40:03;2.10;;;2.00;;
29200;SDS011;16244;51.956;12.980;2023-05-07T14:42:31;4.93;;;2.40;;
29200;SDS011;16244;51.956;12.980;2023-05-07T14:44:59;2.63;;;2.47;;
29200;SDS011;16244;51.956;12.980;2023-05-07T14:47:26;2.63;;;1.47;;
29200;SDS011;16244;51.956;12.980;2023-05-07T14:49:53;2.13;;;2.13;;
29200;SDS011;16244;51.956;12.980;2023-05-07T14:52:23;4.10;;;2.00;;